Time;durP1;ratioP1;P1;durP2;ratioP2;P2;SDS_P1;SDS_P2;PMS_P1;PMS_P2;Temp;Humidity;BMP_temperature;BMP_pressure;BME280_temperature;BME280_humidity;BME280_pressure;Samples;Min_cycle;Max_cycle;Signal;HPM_P1;HPM_P2
2022/07/26 00:01:25;;;;;;;5.95;1.90;;;19.20;99.90;;;;;;5097038;28;20201;-64
2022/07/26 00:03:51;;;;;;;3.95;1.80;;;19.20;99.90;;;;;;5096845;28;20273;-64
2022/07/26 00:06:17;;;;;;;4.70;1.58;;;19.20;99.90;;;;;;5096715;28;20251;-64
2022/07/26 00:08:43;;;;;;;3.38;1.70;;;19.20;99.90;;;;;;5096944;28;20173;-64
2022/07/26 00:11:09;;;;;;;3.10;1.70;;;19.20;99.90;;;;;;5097318;28;20184;-64
2022/07/26 00:13:34;;;;;;;3.20;1.70;;;19.20;99.90;;;;;;5095672;28;20246;-64
2022/07/26 00:16:01;;;;;;;6.63;2.28;;;19.10;99.90;;;;;;5095425;28;20183;-64
2022/07/26 00:18:27;;;;;;;2.38;1.90;;;19.10;99.90;;;;;;5096729;28;20196;-63
2022/07/26 00:20:53;;;;;;;4.80;1.80;;;19.10;99.90;;;;;;5096921;28;20229;-64
2022/07/26 00:23:19;;;;;;;7.47;2.47;;;19.10;99.90;;;;;;5098514;28;20208;-64
2022/07/26 00:25:45;;;;;;;4.07;2.03;;;19.10;99.90;;;;;;5099122;28;20335;-63
2022/07/26 00:28:11;;;;;;;6.57;2.30;;;19.10;99.90;;;;;;5097043;28;20184;-64
2022/07/26 00:30:37;;;;;;;4.90;2.03;;;19.10;99.90;;;;;;5096674;28;20264;-64
2022/07/26 00:33:03;;;;;;;2.42;1.90;;;19.10;99.90;;;;;;5096476;28;20243;-64
2022/07/26 00:35:29;;;;;;;3.72;1.90;;;19.10;99.90;;;;;;5096138;28;20729;-64
2022/07/26 00:37:55;;;;;;;3.50;1.88;;;19.10;99.90;;;;;;5096373;28;20267;-64
2022/07/26 00:40:21;;;;;;;5.82;2.30;;;19.10;99.90;;;;;;5096238;28;20248;-64
2022/07/26 00:42:47;;;;;;;5.57;1.85;;;19.10;99.90;;;;;;5096103;28;20184;-64
2022/07/26 00:45:14;;;;;;;6.93;2.28;;;19.20;99.90;;;;;;5096304;28;20676;-64
2022/07/26 00:47:41;;;;;;;4.22;2.00;;;19.10;99.90;;;;;;5096072;28;20283;-64
2022/07/26 00:50:10;;;;;;;3.08;1.95;;;19.00;99.90;;;;;;5095837;28;20169;-64
2022/07/26 00:52:36;;;;;;;6.82;2.30;;;19.00;99.90;;;;;;5095789;28;20207;-64
2022/07/26 00:55:03;;;;;;;4.65;2.10;;;19.00;99.90;;;;;;5095936;28;20173;-64
2022/07/26 00:57:30;;;;;;;5.78;2.40;;;19.00;99.90;;;;;;5095858;28;20169;-64
2022/07/26 00:59:56;;;;;;;4.07;2.15;;;19.00;99.90;;;;;;5096149;28;20240;-64
2022/07/26 01:02:21;;;;;;;5.57;2.17;;;19.00;99.90;;;;;;5095611;28;20193;-64
2022/07/26 01:04:47;;;;;;;7.55;2.30;;;18.90;99.90;;;;;;5095560;28;20181;-64
2022/07/26 01:07:13;;;;;;;4.78;2.20;;;18.90;99.90;;;;;;5095643;28;20170;-64
2022/07/26 01:09:39;;;;;;;6.13;2.22;;;18.80;99.90;;;;;;5095787;28;20172;-64
2022/07/26 01:12:06;;;;;;;3.47;2.45;;;18.80;99.90;;;;;;5096109;28;20177;-64
2022/07/26 01:14:31;;;;;;;3.92;1.98;;;18.70;99.90;;;;;;5095532;28;20197;-64
2022/07/26 01:16:57;;;;;;;6.07;2.30;;;18.70;99.90;;;;;;5095611;28;20180;-64
2022/07/26 01:19:23;;;;;;;3.70;2.08;;;18.60;99.90;;;;;;5095764;28;20216;-64
2022/07/26 01:21:50;;;;;;;3.70;2.05;;;18.60;99.90;;;;;;5095258;28;20661;-64
2022/07/26 01:24:17;;;;;;;7.65;2.50;;;18.50;99.90;;;;;;5095782;28;20200;-64
2022/07/26 01:26:43;;;;;;;6.22;2.20;;;18.50;99.90;;;;;;5095454;28;20192;-64
2022/07/26 01:29:09;;;;;;;6.07;2.30;;;18.40;99.90;;;;;;5095363;28;20244;-63
2022/07/26 01:31:35;;;;;;;5.68;2.45;;;18.30;99.90;;;;;;5094028;28;20783;-64
2022/07/26 01:34:01;;;;;;;5.07;2.50;;;18.30;99.90;;;;;;5095441;28;20277;-64
2022/07/26 01:36:27;;;;;;;5.18;2.50;;;18.20;99.90;;;;;;5094841;28;20177;-64
2022/07/26 01:38:52;;;;;;;6.70;3.05;;;18.20;99.90;;;;;;5095344;28;20213;-64
2022/07/26 01:41:18;;;;;;;4.70;2.40;;;18.10;99.90;;;;;;5094303;28;20194;-64
2022/07/26 01:43:44;;;;;;;6.40;3.10;;;18.10;99.90;;;;;;5095009;28;20185;-64
2022/07/26 01:46:12;;;;;;;4.78;2.60;;;18.00;99.90;;;;;;5094964;28;20184;-64
2022/07/26 01:48:38;;;;;;;4.88;2.63;;;18.00;99.90;;;;;;5094986;28;20631;-64
2022/07/26 01:51:04;;;;;;;8.43;3.17;;;18.00;99.90;;;;;;5094657;28;20200;-64
2022/07/26 01:53:30;;;;;;;4.28;2.22;;;17.90;99.90;;;;;;5094982;28;20649;-64
2022/07/26 01:55:55;;;;;;;8.32;3.58;;;17.90;99.90;;;;;;5094782;28;20189;-64
2022/07/26 01:58:21;;;;;;;5.85;2.97;;;17.90;99.90;;;;;;5094774;28;20169;-64
2022/07/26 02:00:48;;;;;;;6.13;2.90;;;17.90;99.90;;;;;;5094596;28;20307;-64
2022/07/26 02:03:13;;;;;;;5.10;2.90;;;17.80;99.90;;;;;;5094759;28;20246;-64
2022/07/26 02:05:39;;;;;;;5.57;2.65;;;17.80;99.90;;;;;;5094185;28;20260;-64
2022/07/26 02:08:05;;;;;;;7.95;2.80;;;17.70;99.90;;;;;;5094854;28;20177;-64
2022/07/26 02:13:16;;;;;;;5.72;2.47;;;17.80;99.90;;;;;;5094439;28;20277;-64
2022/07/26 02:15:42;;;;;;;6.03;2.70;;;17.70;99.90;;;;;;5094373;28;20689;-64
2022/07/26 02:18:08;;;;;;;6.35;2.75;;;17.70;99.90;;;;;;5094276;28;20246;-64
2022/07/26 02:20:34;;;;;;;7.13;2.92;;;17.70;99.90;;;;;;5093986;28;20173;-64
2022/07/26 02:23:00;;;;;;;5.88;2.85;;;17.80;99.90;;;;;;5094489;28;20212;-64
2022/07/26 02:25:27;;;;;;;5.93;2.70;;;17.80;99.90;;;;;;5094454;28;20181;-64
2022/07/26 02:27:52;;;;;;;9.82;2.72;;;17.70;99.90;;;;;;5094665;28;20166;-64
2022/07/26 02:30:18;;;;;;;7.38;3.00;;;17.70;99.90;;;;;;5094134;28;20180;-64
2022/07/26 02:32:44;;;;;;;7.75;2.92;;;17.80;99.90;;;;;;5094467;28;20240;-64
2022/07/26 02:35:10;;;;;;;12.27;3.65;;;17.80;99.90;;;;;;5094115;28;20177;-64
2022/07/26 02:37:36;;;;;;;6.28;2.97;;;17.70;99.90;;;;;;5094356;28;20702;-64
2022/07/26 02:40:03;;;;;;;9.48;2.90;;;17.80;99.90;;;;;;5094476;28;20169;-64
2022/07/26 02:42:28;;;;;;;7.10;2.92;;;17.70;99.90;;;;;;5093834;28;20193;-64
2022/07/26 02:44:54;;;;;;;7.63;2.92;;;17.70;99.90;;;;;;5093945;28;20523;-64
2022/07/26 02:47:20;;;;;;;8.20;2.90;;;17.70;99.90;;;;;;5092581;28;20181;-64
2022/07/26 02:49:46;;;;;;;8.20;2.72;;;17.70;99.90;;;;;;5094407;28;20175;-64
2022/07/26 02:52:12;;;;;;;4.10;2.72;;;17.70;99.90;;;;;;5093312;28;20173;-63
2022/07/26 02:54:37;;;;;;;6.20;3.13;;;17.70;99.90;;;;;;5093673;28;20193;-64
2022/07/26 02:57:03;;;;;;;7.15;3.40;;;17.70;99.90;;;;;;5092468;28;20181;-64
2022/07/26 02:59:29;;;;;;;7.70;3.10;;;17.80;99.90;;;;;;5093989;28;20239;-64
2022/07/26 03:01:55;;;;;;;3.85;2.40;;;17.80;99.90;;;;;;5092641;28;20303;-66
2022/07/26 03:04:21;;;;;;;5.32;2.80;;;17.80;99.90;;;;;;5093884;28;20201;-66
2022/07/26 03:06:47;;;;;;;7.00;2.58;;;17.80;99.90;;;;;;5093864;28;20197;-66
2022/07/26 03:09:13;;;;;;;9.32;2.83;;;17.80;99.90;;;;;;5094187;28;20533;-66
2022/07/26 03:11:38;;;;;;;7.22;2.60;;;17.80;99.90;;;;;;5094168;28;20173;-65
2022/07/26 03:14:04;;;;;;;8.45;2.70;;;17.80;99.90;;;;;;5094013;28;20200;-65
2022/07/26 03:16:30;;;;;;;8.55;2.88;;;17.70;99.90;;;;;;5094830;28;20184;-65
2022/07/26 03:18:56;;;;;;;7.25;2.55;;;17.70;99.90;;;;;;5094332;28;20193;-65
2022/07/26 03:21:22;;;;;;;10.25;2.78;;;17.70;99.90;;;;;;5094160;28;20657;-66
2022/07/26 03:23:48;;;;;;;8.05;2.65;;;17.70;99.90;;;;;;5093879;28;20193;-66
2022/07/26 03:26:14;;;;;;;8.68;2.40;;;17.80;99.90;;;;;;5094039;28;20168;-66
2022/07/26 03:28:41;;;;;;;6.75;3.17;;;17.80;99.90;;;;;;5093627;28;20535;-66
2022/07/26 03:31:07;;;;;;;6.72;2.60;;;17.90;99.90;;;;;;5094403;28;20197;-66
2022/07/26 03:33:33;;;;;;;7.82;2.90;;;17.80;99.90;;;;;;5092265;28;20208;-66
2022/07/26 03:35:59;;;;;;;7.18;2.72;;;17.80;99.90;;;;;;5093526;28;20181;-66
2022/07/26 03:38:25;;;;;;;9.43;3.00;;;17.80;99.90;;;;;;5094104;28;20175;-66
2022/07/26 03:40:51;;;;;;;7.50;2.90;;;17.80;99.90;;;;;;5092099;28;20292;-66
2022/07/26 03:43:18;;;;;;;14.35;3.28;;;17.80;99.90;;;;;;5093531;28;20701;-66
2022/07/26 03:45:44;;;;;;;7.90;2.70;;;17.80;99.90;;;;;;5093428;28;20571;-66
2022/07/26 03:48:10;;;;;;;10.32;2.83;;;17.90;99.90;;;;;;5094231;28;20554;-66
2022/07/26 03:50:36;;;;;;;5.97;2.60;;;17.90;99.90;;;;;;5093457;28;20256;-66
2022/07/26 03:53:02;;;;;;;6.75;2.80;;;17.90;99.90;;;;;;5093178;28;20531;-66
2022/07/26 03:58:13;;;;;;;6.88;2.60;;;17.90;99.90;;;;;;5093896;28;20172;-66
2022/07/26 04:00:38;;;;;;;8.50;2.90;;;17.80;99.90;;;;;;5093613;28;20165;-66
2022/07/26 04:03:04;;;;;;;5.40;2.97;;;17.80;99.90;;;;;;5093762;28;20554;-66
2022/07/26 04:05:30;;;;;;;7.53;2.92;;;17.70;99.90;;;;;;5096723;28;20702;-66
2022/07/26 04:07:56;;;;;;;3.97;2.70;;;17.60;99.90;;;;;;5096967;28;20169;-66
2022/07/26 04:10:22;;;;;;;9.82;3.70;;;17.50;99.90;;;;;;5096925;28;20256;-66
2022/07/26 04:12:49;;;;;;;8.65;3.28;;;17.50;99.90;;;;;;5096834;28;20193;-66
2022/07/26 04:15:15;;;;;;;7.25;2.88;;;17.40;99.90;;;;;;5097092;28;20195;-66
2022/07/26 04:17:42;;;;;;;6.95;3.75;;;17.40;99.90;;;;;;5096698;28;20217;-66
2022/07/26 04:20:10;;;;;;;7.03;3.40;;;17.40;99.90;;;;;;5097213;28;20153;-66
2022/07/26 04:22:36;;;;;;;6.93;3.30;;;17.40;99.90;;;;;;5096621;28;20575;-66
2022/07/26 04:25:04;;;;;;;11.15;3.83;;;17.40;99.90;;;;;;5096902;28;20173;-66
2022/07/26 04:27:30;;;;;;;6.25;3.05;;;17.30;99.90;;;;;;5096793;28;20272;-65
2022/07/26 04:29:56;;;;;;;9.93;3.28;;;17.30;99.90;;;;;;5096942;28;20173;-65
2022/07/26 04:32:22;;;;;;;6.07;3.40;;;17.30;99.90;;;;;;5096680;28;20622;-66
2022/07/26 04:34:48;;;;;;;11.13;3.47;;;17.20;99.90;;;;;;5096231;28;20185;-65
2022/07/26 04:37:14;;;;;;;13.07;3.40;;;17.20;99.90;;;;;;5096567;28;20177;-65
2022/07/26 04:39:40;;;;;;;5.35;3.60;;;17.20;99.90;;;;;;5096786;28;20177;-66
2022/07/26 04:42:05;;;;;;;8.95;3.33;;;17.10;99.90;;;;;;5096233;28;20208;-66
2022/07/26 04:44:31;;;;;;;8.02;3.58;;;17.10;99.90;;;;;;5096123;28;20204;-66
2022/07/26 04:46:57;;;;;;;8.32;3.97;;;17.10;99.90;;;;;;5096166;28;20176;-66
2022/07/26 04:49:23;;;;;;;11.13;3.83;;;17.10;99.90;;;;;;5096016;28;20180;-66
2022/07/26 04:51:48;;;;;;;11.30;3.92;;;17.00;99.90;;;;;;5096063;28;20173;-66
2022/07/26 04:54:19;;;;;;;8.98;3.88;;;16.90;99.90;;;;;;5094735;28;20231;-66
2022/07/26 04:56:46;;;;;;;10.32;4.20;;;16.90;99.90;;;;;;5096363;28;20172;-66
2022/07/26 04:59:12;;;;;;;9.13;4.55;;;16.70;99.90;;;;;;5096991;28;20229;-66
2022/07/26 05:01:38;;;;;;;10.18;4.65;;;16.50;99.90;;;;;;5096178;28;20193;-66
2022/07/26 05:04:04;;;;;;;11.70;4.93;;;16.40;99.90;;;;;;5095715;28;20212;-65
2022/07/26 05:06:31;;;;;;;14.30;4.93;;;16.20;99.90;;;;;;5095520;28;20252;-66
2022/07/26 05:08:57;;;;;;;17.42;5.35;;;16.10;99.90;;;;;;5096266;28;20165;-66
2022/07/26 05:11:24;;;;;;;13.43;6.15;;;16.10;99.90;;;;;;5095620;28;20177;-65
2022/07/26 05:13:50;;;;;;;8.63;5.63;;;16.00;99.90;;;;;;5095398;28;20217;-65
2022/07/26 05:16:16;;;;;;;12.80;6.32;;;16.00;99.90;;;;;;5094165;28;20204;-65
2022/07/26 05:18:42;;;;;;;11.38;6.15;;;15.90;99.90;;;;;;5095781;28;20207;-65
2022/07/26 05:21:08;;;;;;;14.27;7.15;;;15.80;99.90;;;;;;5093809;28;20209;-65
2022/07/26 05:23:33;;;;;;;12.35;5.93;;;15.80;99.90;;;;;;5095666;28;20710;-65
2022/07/26 05:25:59;;;;;;;12.52;6.82;;;15.70;99.90;;;;;;5095375;28;20224;-66
2022/07/26 05:28:25;;;;;;;17.73;7.45;;;15.80;99.90;;;;;;5095485;28;20681;-65
2022/07/26 05:30:51;;;;;;;21.02;7.93;;;15.80;99.90;;;;;;5095752;28;20194;-65
2022/07/26 05:33:16;;;;;;;11.73;7.22;;;15.90;99.90;;;;;;5095217;28;20568;-65
2022/07/26 05:35:42;;;;;;;17.52;7.53;;;15.90;99.90;;;;;;5094808;28;20185;-65
2022/07/26 05:38:08;;;;;;;14.50;7.18;;;15.80;99.90;;;;;;5093615;28;20548;-65
2022/07/26 05:40:34;;;;;;;15.00;7.32;;;16.00;99.90;;;;;;5095105;28;20187;-65
2022/07/26 05:43:00;;;;;;;14.43;7.97;;;16.00;99.90;;;;;;5095035;28;20215;-65
2022/07/26 05:45:26;;;;;;;14.88;7.70;;;15.90;99.90;;;;;;5094769;28;20173;-65
2022/07/26 05:47:52;;;;;;;16.88;7.47;;;16.00;99.90;;;;;;5094877;28;20169;-65
2022/07/26 05:50:19;;;;;;;15.73;8.27;;;16.00;99.90;;;;;;5094687;28;20180;-65
2022/07/26 05:52:45;;;;;;;13.85;7.88;;;16.00;99.90;;;;;;5093073;28;20197;-65
2022/07/26 05:55:10;;;;;;;13.68;8.13;;;16.00;99.90;;;;;;5093245;28;20230;-65
2022/07/26 05:57:40;;;;;;;14.93;7.90;;;16.00;99.90;;;;;;5094557;28;20177;-65
2022/07/26 06:00:10;;;;;;;19.35;9.27;;;16.00;99.90;;;;;;5094705;28;20177;-65
2022/07/26 06:02:35;;;;;;;19.30;9.30;;;16.10;99.90;;;;;;5094575;28;20201;-65
2022/07/26 06:05:01;;;;;;;17.85;9.45;;;16.10;99.90;;;;;;5094574;28;20177;-65
2022/07/26 06:07:27;;;;;;;18.05;9.27;;;16.10;99.90;;;;;;5094516;28;20181;-65
2022/07/26 06:09:53;;;;;;;21.35;10.30;;;16.20;99.90;;;;;;5094648;28;20180;-65
2022/07/26 06:12:18;;;;;;;22.50;9.40;;;16.20;99.90;;;;;;5094450;28;20230;-65
2022/07/26 06:14:44;;;;;;;20.27;9.88;;;16.30;99.90;;;;;;5094797;28;20688;-65
2022/07/26 06:17:10;;;;;;;19.85;10.10;;;16.30;99.90;;;;;;5094247;28;20544;-66
2022/07/26 06:19:36;;;;;;;18.50;10.23;;;16.30;99.90;;;;;;5094838;28;20211;-65
2022/07/26 06:22:03;;;;;;;22.67;10.18;;;16.40;99.90;;;;;;5093967;28;20665;-65
2022/07/26 06:24:28;;;;;;;23.15;10.02;;;16.50;99.90;;;;;;5094130;28;20192;-65
2022/07/26 06:27:09;;;;;;;18.95;10.27;;;16.50;99.90;;;;;;5071490;28;20205;-65
2022/07/26 06:29:35;;;;;;;23.15;10.75;;;16.70;99.90;;;;;;5092771;28;20173;-65
2022/07/26 06:32:00;;;;;;;13.95;9.65;;;16.60;99.90;;;;;;5093929;28;20177;-66
2022/07/26 06:34:26;;;;;;;18.17;8.93;;;16.70;99.90;;;;;;5093810;28;20205;-65
2022/07/26 06:36:52;;;;;;;23.10;10.38;;;16.80;99.90;;;;;;5093720;28;20180;-66
2022/07/26 06:39:18;;;;;;;19.17;10.07;;;16.80;99.90;;;;;;5093891;28;20196;-66
2022/07/26 06:41:43;;;;;;;24.98;11.13;;;16.80;99.90;;;;;;5093766;28;20242;-66
2022/07/26 06:44:09;;;;;;;21.55;10.93;;;16.90;99.90;;;;;;5093779;28;20242;-66
2022/07/26 06:46:35;;;;;;;20.80;11.27;;;16.90;99.90;;;;;;5093821;28;20235;-66
2022/07/26 06:49:01;;;;;;;22.70;10.90;;;16.90;99.90;;;;;;5094030;28;20634;-66
2022/07/26 06:51:27;;;;;;;18.85;10.35;;;16.80;99.90;;;;;;5093922;28;20528;-66
2022/07/26 06:53:53;;;;;;;24.95;11.38;;;16.80;99.90;;;;;;5092634;28;20651;-68
2022/07/26 06:56:18;;;;;;;19.40;10.77;;;16.90;99.90;;;;;;5093685;28;20222;-68
2022/07/26 06:58:45;;;;;;;23.73;10.90;;;17.00;99.90;;;;;;5093640;28;20184;-68
2022/07/26 07:01:11;;;;;;;29.48;12.57;;;17.00;99.90;;;;;;5093794;28;20661;-68
2022/07/26 07:03:37;;;;;;;24.15;12.63;;;17.10;99.90;;;;;;5093597;28;20237;-68
2022/07/26 07:06:03;;;;;;;24.45;13.00;;;17.20;99.90;;;;;;5094021;28;20244;-68
2022/07/26 07:08:28;;;;;;;24.77;13.65;;;17.30;99.90;;;;;;5094499;28;20664;-68
2022/07/26 07:10:55;;;;;;;23.73;14.65;;;17.30;99.90;;;;;;5094590;28;20181;-68
2022/07/26 07:13:21;;;;;;;25.30;14.90;;;17.40;99.90;;;;;;5093909;28;20593;-68
2022/07/26 07:15:47;;;;;;;23.40;15.15;;;17.40;99.90;;;;;;5093347;28;20168;-68
2022/07/26 07:18:13;;;;;;;26.33;15.30;;;17.50;99.90;;;;;;5093721;28;20268;-69
2022/07/26 07:20:39;;;;;;;30.67;17.00;;;17.60;99.90;;;;;;5093337;28;20674;-68
2022/07/26 07:23:05;;;;;;;29.33;16.15;;;17.70;99.90;;;;;;5093198;28;20193;-68
2022/07/26 07:25:31;;;;;;;25.77;17.67;;;17.80;99.90;;;;;;5093367;28;20598;-68
2022/07/26 07:27:58;;;;;;;30.27;17.02;;;17.80;99.90;;;;;;5093705;28;20161;-68
2022/07/26 07:30:25;;;;;;;29.98;18.30;;;17.90;99.90;;;;;;5092057;28;20567;-68
2022/07/26 07:32:50;;;;;;;26.67;18.65;;;17.90;99.90;;;;;;5091907;28;20212;-68
2022/07/26 07:35:16;;;;;;;30.65;18.08;;;17.90;99.90;;;;;;5093451;28;20185;-70
2022/07/26 07:37:44;;;;;;;23.60;17.58;;;18.00;99.90;;;;;;5093110;28;20200;-70
2022/07/26 07:40:11;;;;;;;26.33;16.58;;;17.90;99.90;;;;;;5097679;28;20176;-70
2022/07/26 07:42:37;;;;;;;29.77;18.50;;;18.00;99.90;;;;;;5097228;28;20657;-70
2022/07/26 07:45:03;;;;;;;30.63;17.98;;;18.10;99.90;;;;;;5097258;28;20185;-70
2022/07/26 07:47:33;;;;;;;32.95;18.88;;;18.20;99.90;;;;;;5097535;28;20176;-70
2022/07/26 07:49:58;;;;;;;28.15;16.70;;;18.20;99.90;;;;;;5097109;28;20190;-70
2022/07/26 07:52:24;;;;;;;31.20;17.60;;;18.20;99.90;;;;;;5095768;28;20220;-69
2022/07/26 07:54:50;;;;;;;28.02;18.02;;;18.20;99.90;;;;;;5097710;28;20181;-70
2022/07/26 07:57:16;;;;;;;30.40;17.23;;;18.10;99.90;;;;;;5097043;28;20191;-70
2022/07/26 07:59:41;;;;;;;31.63;17.05;;;18.20;99.90;;;;;;5097025;28;20208;-70
2022/07/26 08:02:08;;;;;;;27.75;16.60;;;18.30;99.90;;;;;;5097425;28;20201;-70
2022/07/26 08:04:34;;;;;;;29.13;18.02;;;18.40;99.90;;;;;;5097349;28;20196;-70
2022/07/26 08:07:00;;;;;;;23.90;16.25;;;18.40;99.90;;;;;;5096818;28;20527;-70
2022/07/26 08:09:26;;;;;;;22.35;15.85;;;18.50;99.90;;;;;;5097114;28;20157;-70
2022/07/26 08:11:51;;;;;;;23.95;16.83;;;18.60;99.90;;;;;;5096907;28;20173;-71
2022/07/26 08:14:18;;;;;;;25.35;16.58;;;18.60;99.90;;;;;;5096504;28;20261;-70
2022/07/26 08:16:44;;;;;;;27.73;17.75;;;18.70;99.90;;;;;;5095513;28;20177;-71
2022/07/26 08:19:10;;;;;;;24.23;17.17;;;18.90;99.90;;;;;;5096571;28;20195;-70
2022/07/26 08:21:35;;;;;;;27.02;16.80;;;19.00;99.90;;;;;;5096616;28;20674;-71
2022/07/26 08:24:01;;;;;;;22.35;16.15;;;19.10;99.90;;;;;;5096997;28;20214;-70
2022/07/26 08:26:27;;;;;;;21.27;15.95;;;19.20;99.90;;;;;;5096665;28;20174;-70
2022/07/26 08:28:53;;;;;;;21.13;15.50;;;19.20;99.90;;;;;;5096696;28;20176;-70
2022/07/26 08:31:19;;;;;;;20.83;13.95;;;19.30;99.90;;;;;;5096599;28;20539;-70
2022/07/26 08:33:46;;;;;;;23.02;13.80;;;19.50;99.90;;;;;;5095099;28;20279;-70
2022/07/26 08:36:16;;;;;;;17.70;12.48;;;19.40;99.90;;;;;;5096249;28;20184;-74
2022/07/26 08:38:43;;;;;;;21.63;12.68;;;19.50;99.90;;;;;;5096388;28;20173;-76
2022/07/26 08:41:09;;;;;;;15.88;11.32;;;19.70;99.90;;;;;;5096221;28;20193;-74
2022/07/26 08:43:35;;;;;;;25.50;12.02;;;19.70;99.90;;;;;;5096193;28;20730;-71
2022/07/26 08:46:01;;;;;;;15.95;11.18;;;19.70;99.90;;;;;;5094762;28;20549;-71
2022/07/26 08:48:27;;;;;;;12.65;10.32;;;19.70;99.90;;;;;;5096275;28;20626;-71
2022/07/26 08:50:55;;;;;;;16.60;11.20;;;19.80;99.90;;;;;;5095542;28;20267;-71
2022/07/26 08:53:22;;;;;;;16.27;10.23;;;19.90;99.90;;;;;;5095673;28;20189;-71
2022/07/26 08:55:48;;;;;;;14.00;9.63;;;20.30;99.90;;;;;;5095816;28;20200;-71
2022/07/26 08:58:14;;;;;;;11.75;9.50;;;20.60;99.90;;;;;;5094516;28;20199;-71
2022/07/26 09:00:42;;;;;;;12.50;8.68;;;20.70;99.90;;;;;;5096002;28;20166;-71
2022/07/26 09:03:23;;;;;;;11.00;7.93;;;20.80;99.90;;;;;;5095597;28;20185;-71
2022/07/26 09:05:49;;;;;;;15.88;6.50;;;20.80;99.90;;;;;;5095712;28;20527;-71
2022/07/26 09:08:24;;;;;;;10.13;6.70;;;20.70;99.90;;;;;;5095361;28;20218;-71
2022/07/26 09:10:50;;;;;;;8.30;6.60;;;20.70;99.90;;;;;;5095563;28;20169;-71
2022/07/26 09:13:15;;;;;;;10.63;6.40;;;20.70;99.90;;;;;;5095464;28;20211;-70
2022/07/26 09:15:41;;;;;;;10.05;7.15;;;20.70;99.90;;;;;;5095605;28;20180;-71
2022/07/26 09:18:24;;;;;;;8.85;7.40;;;20.80;99.90;;;;;;5094067;28;20196;-71
2022/07/26 09:20:50;;;;;;;10.25;7.85;;;21.00;99.90;;;;;;5095646;28;20177;-71
2022/07/26 09:23:16;;;;;;;13.25;7.28;;;21.40;99.90;;;;;;5093804;28;20673;-71
2022/07/26 09:25:44;;;;;;;10.50;6.78;;;21.50;99.90;;;;;;5094293;28;20545;-71
2022/07/26 09:28:24;;;;;;;7.70;5.82;;;21.70;99.90;;;;;;5094141;28;20169;-71
2022/07/26 09:31:16;;;;;;;11.98;6.43;;;21.80;99.90;;;;;;5093946;28;20191;-72
2022/07/26 09:33:50;;;;;;;8.75;6.80;;;21.50;99.90;;;;;;5095114;28;20204;-70
2022/07/26 09:36:17;;;;;;;10.02;6.57;;;21.20;99.90;;;;;;5095454;28;20567;-70
2022/07/26 09:38:45;;;;;;;11.30;6.65;;;21.20;99.90;;;;;;5093745;28;20173;-71
2022/07/26 09:41:20;;;;;;;11.77;6.53;;;21.10;99.90;;;;;;5095223;28;20197;-71
2022/07/26 09:43:46;;;;;;;6.22;5.63;;;20.90;99.90;;;;;;5095106;28;20629;-71
2022/07/26 09:46:12;;;;;;;11.43;7.05;;;20.60;99.90;;;;;;5095058;28;20544;-71
2022/07/26 09:48:38;;;;;;;9.88;6.65;;;20.40;99.90;;;;;;5093868;28;20195;-71
2022/07/26 09:51:05;;;;;;;12.88;7.63;;;20.20;99.90;;;;;;5093650;28;20173;-71
2022/07/26 09:53:45;;;;;;;9.25;6.82;;;20.10;99.90;;;;;;5094468;28;20188;-70
2022/07/26 09:56:11;;;;;;;14.35;7.38;;;20.10;99.90;;;;;;5094975;28;20161;-71
2022/07/26 09:58:37;;;;;;;10.00;7.53;;;20.20;99.90;;;;;;5094660;28;20188;-71
2022/07/26 10:01:07;;;;;;;10.50;7.63;;;20.20;99.90;;;;;;5092405;28;20201;-71
2022/07/26 10:03:34;;;;;;;17.70;7.30;;;20.20;99.90;;;;;;5094495;28;20276;-67
2022/07/26 10:06:01;;;;;;;12.15;6.63;;;20.30;99.90;;;;;;5094522;28;20627;-67
2022/07/26 10:08:28;;;;;;;8.52;6.28;;;20.30;99.90;;;;;;5092955;28;20215;-67
2022/07/26 10:11:07;;;;;;;12.45;6.90;;;20.40;99.90;;;;;;5093067;28;20169;-67
2022/07/26 10:13:33;;;;;;;10.32;6.30;;;20.60;99.90;;;;;;5094297;28;20189;-67
2022/07/26 10:16:00;;;;;;;6.40;5.68;;;21.10;99.90;;;;;;5094268;28;20187;-67
2022/07/26 10:18:35;;;;;;;10.77;6.00;;;21.20;99.90;;;;;;5092881;28;20677;-67
2022/07/26 10:21:23;;;;;;;10.55;5.30;;;21.20;99.90;;;;;;5094145;28;20256;-67
2022/07/26 10:24:00;;;;;;;15.00;6.20;;;21.30;99.90;;;;;;5094153;28;20267;-67
2022/07/26 10:26:32;;;;;;;12.18;6.22;;;21.10;99.90;;;;;;5094380;28;20629;-67
2022/07/26 10:29:15;;;;;;;9.85;6.40;;;21.10;99.90;;;;;;5094303;28;20702;-67
2022/07/26 10:31:46;;;;;;;12.82;6.68;;;20.90;99.90;;;;;;5094046;28;20169;-67
2022/07/26 10:34:37;;;;;;;12.82;5.35;;;20.60;99.90;;;;;;5094039;28;20200;-67
2022/07/26 10:37:06;;;;;;;9.90;5.57;;;20.60;99.90;;;;;;5093965;28;20181;-67
2022/07/26 10:39:33;;;;;;;9.38;5.40;;;20.60;99.90;;;;;;5093910;28;20196;-66
2022/07/26 10:42:09;;;;;;;8.40;5.15;;;20.70;99.90;;;;;;5094100;28;20204;-67
2022/07/26 10:44:40;;;;;;;13.30;5.20;;;20.70;99.90;;;;;;5094109;28;20189;-66
2022/07/26 10:47:06;;;;;;;9.13;4.97;;;20.80;99.90;;;;;;5093815;28;20202;-67
2022/07/26 10:49:54;;;;;;;7.15;4.68;;;20.90;99.90;;;;;;5093808;28;20169;-67
2022/07/26 10:52:29;;;;;;;13.60;6.45;;;21.10;99.90;;;;;;5092206;28;20176;-66
2022/07/26 10:55:03;;;;;;;8.27;5.07;;;21.50;99.90;;;;;;5093684;28;20161;-67
2022/07/26 10:57:36;;;;;;;8.52;5.80;;;21.90;99.90;;;;;;5093599;28;20195;-67
2022/07/26 11:00:14;;;;;;;7.60;5.30;;;22.30;99.90;;;;;;5093975;28;20161;-67
2022/07/26 11:02:42;;;;;;;11.10;6.38;;;22.50;99.90;;;;;;5093770;28;20657;-67
2022/07/26 11:05:12;;;;;;;7.82;6.03;;;22.70;99.90;;;;;;5092272;28;20192;-67
2022/07/26 11:07:47;;;;;;;14.95;6.47;;;22.40;99.90;;;;;;5093363;28;20161;-67
2022/07/26 11:10:13;;;;;;;9.07;6.60;;;22.10;99.90;;;;;;5093493;28;20172;-67
2022/07/26 11:12:39;;;;;;;8.52;6.45;;;21.80;99.90;;;;;;5091976;28;20181;-67
2022/07/26 11:15:17;;;;;;;5.25;3.10;;;21.80;99.90;;;;;;5094081;28;20254;-67
2022/07/26 11:17:43;;;;;;;5.70;2.90;;;21.30;99.90;;;;;;5093175;28;20188;-67
2022/07/26 11:20:10;;;;;;;4.63;2.70;;;20.90;99.90;;;;;;5093525;28;20166;-67
2022/07/26 11:22:36;;;;;;;4.43;2.25;;;20.70;99.90;;;;;;5093238;28;20208;-68
2022/07/26 11:25:03;;;;;;;3.42;2.30;;;20.30;99.90;;;;;;5093317;28;20634;-67
2022/07/26 11:27:29;;;;;;;4.72;2.80;;;20.00;99.90;;;;;;5092018;28;20173;-67
2022/07/26 11:30:01;;;;;;;2.65;2.25;;;19.80;99.90;;;;;;5092046;28;20256;-67
2022/07/26 11:32:27;;;;;;;4.78;2.60;;;19.70;99.90;;;;;;5092850;28;20648;-71
2022/07/26 11:35:01;;;;;;;4.78;2.97;;;19.60;99.90;;;;;;5093342;28;20193;-72
2022/07/26 11:37:27;;;;;;;4.00;2.75;;;19.40;99.90;;;;;;5091807;28;20646;-71
2022/07/26 11:39:53;;;;;;;6.53;3.30;;;19.30;99.90;;;;;;5093622;28;20185;-71
2022/07/26 11:42:20;;;;;;;4.88;4.07;;;19.30;99.90;;;;;;5092184;28;20568;-71
2022/07/26 11:44:47;;;;;;;5.53;4.20;;;19.20;99.90;;;;;;5093501;28;20724;-72
2022/07/26 11:47:21;;;;;;;6.63;4.75;;;19.20;99.90;;;;;;5091983;28;20165;-71
2022/07/26 11:49:48;;;;;;;6.03;4.47;;;19.30;99.90;;;;;;5093534;28;20158;-72
2022/07/26 11:52:14;;;;;;;7.85;4.70;;;19.40;99.90;;;;;;5093050;28;20195;-75
2022/07/26 11:54:48;;;;;;;8.18;4.90;;;19.50;99.90;;;;;;5093276;28;20769;-76
2022/07/26 11:57:14;;;;;;;6.13;5.50;;;19.60;99.90;;;;;;5092548;28;20532;-75
2022/07/26 11:59:42;;;;;;;7.88;5.30;;;19.80;99.90;;;;;;5093299;28;20248;-75
2022/07/26 12:02:09;;;;;;;7.05;5.55;;;19.80;99.90;;;;;;5093148;28;20192;-75
2022/07/26 12:04:37;;;;;;;8.27;5.45;;;19.80;99.90;;;;;;5093614;28;20204;-75
2022/07/26 12:07:09;;;;;;;7.00;4.93;;;19.90;99.90;;;;;;5093099;28;20173;-75
2022/07/26 12:09:37;;;;;;;7.82;5.07;;;19.90;99.90;;;;;;5091932;28;20173;-71
2022/07/26 12:12:05;;;;;;;7.93;5.20;;;19.90;99.90;;;;;;5091626;28;20177;-71
2022/07/26 12:14:33;;;;;;;6.45;5.15;;;19.90;99.90;;;;;;5093121;28;20189;-71
2022/07/26 12:17:11;;;;;;;5.75;4.82;;;19.90;99.90;;;;;;5092940;28;20176;-71
2022/07/26 12:19:37;;;;;;;4.60;4.00;;;20.00;99.90;;;;;;5093061;28;20275;-71
2022/07/26 12:22:08;;;;;;;7.18;4.13;;;20.10;99.90;;;;;;5091448;28;20354;-71
2022/07/26 12:24:40;;;;;;;5.18;4.53;;;20.10;99.90;;;;;;5092487;28;20650;-71
2022/07/26 12:27:11;;;;;;;7.97;3.85;;;20.20;99.90;;;;;;5096522;28;20168;-71
2022/07/26 12:29:39;;;;;;;3.17;2.85;;;20.30;99.90;;;;;;5095502;28;20582;-72
2022/07/26 12:32:06;;;;;;;3.20;2.47;;;20.20;99.90;;;;;;5096785;28;20256;-71
2022/07/26 12:34:33;;;;;;;3.25;2.10;;;20.10;99.90;;;;;;5095440;28;20209;-71
2022/07/26 12:37:13;;;;;;;3.80;2.45;;;20.10;99.90;;;;;;5096568;28;20247;-71
2022/07/26 12:39:40;;;;;;;2.97;2.25;;;20.10;99.90;;;;;;5095586;28;20252;-71
2022/07/26 12:42:21;;;;;;;2.30;2.05;;;20.30;99.90;;;;;;5095976;28;20197;-72
2022/07/26 12:44:47;;;;;;;3.05;1.83;;;21.00;99.90;;;;;;5096657;28;20189;-72
2022/07/26 12:47:13;;;;;;;3.00;1.98;;;21.20;99.90;;;;;;5096975;28;20169;-72